^^
Station Historical Data
Daily Summary for August 4, 2017 Units:  Both    English   Metric
« Previous Day
Next Day »
Daily Weekly Monthly Yearly Custom
  High: Low: Average:
Temperature: 73.6 °F /  23.1 °C 47.5 °F /  8.6 °C 58.3 °F /  14.6 °C
Dew Point: 36.9 °F /  2.7 °C 26.2 °F /  -3.2 °C 31.2 °F /  -0.4 °C
Humidity: 53% 22% 37%
Wind Speed: 6.9mph /  11.1km/h - 0.3mph /  0.5km/h
Wind Gust: 10.0mph /  16.1km/h - -
Wind- - WSW
Pressure: 30.31 in /  1026.3 hPa 30.18 in /  1021.9 hPa -
Precipitation: 0.00 in /  0 mm    
Historical Graphs
 
 
Tabular Data for August 4, 2017
Time Temperature Dew Point Pressure Wind Wind Speed Wind Gust Humidity Rainfall Rate (Hourly) solar Conditions
00:02 54.5 °F /  12.5 °C 30.0 °F /  -1.1 °C 30.31in /  1026.3hPa Calm   1.0mph /  1.6km/h 39% 0.00in /  0mm 0.0 W/m2
00:08 54.1 °F /  12.3 °C 29.7 °F /  -1.3 °C 30.31in /  1026.3hPa Calm   1.0mph /  1.6km/h 39% 0.00in /  0mm 0.0 W/m2
00:14 54.0 °F /  12.2 °C 29.5 °F /  -1.4 °C 30.31in /  1026.3hPa Calm   1.0mph /  1.6km/h 39% 0.00in /  0mm 0.0 W/m2
00:21 53.8 °F /  12.1 °C 29.5 °F /  -1.4 °C 30.31in /  1026.3hPa Calm     39% 0.00in /  0mm 0.0 W/m2
00:26 53.4 °F /  11.9 °C 29.7 °F /  -1.3 °C 30.31in /  1026.3hPa Calm     40% 0.00in /  0mm 0.0 W/m2
00:33 53.1 °F /  11.7 °C 29.3 °F /  -1.5 °C 30.31in /  1026.3hPa Calm     40% 0.00in /  0mm 0.0 W/m2
00:39 52.7 °F /  11.5 °C 29.7 °F /  -1.3 °C 30.31in /  1026.3hPa Calm     41% 0.00in /  0mm 0.0 W/m2
00:45 52.3 °F /  11.3 °C 29.3 °F /  -1.5 °C 30.31in /  1026.3hPa Calm     41% 0.00in /  0mm 0.0 W/m2
00:51 52.0 °F /  11.1 °C 29.7 °F /  -1.3 °C 30.31in /  1026.3hPa Calm     42% 0.00in /  0mm 0.0 W/m2
00:57 51.6 °F /  10.9 °C 29.8 °F /  -1.2 °C 30.31in /  1026.3hPa Calm     43% 0.00in /  0mm 0.0 W/m2
01:03 51.3 °F /  10.7 °C 29.5 °F /  -1.4 °C 30.30in /  1026hPa Calm     43% 0.00in /  0mm 0.0 W/m2
01:10 51.1 °F /  10.6 °C 29.8 °F /  -1.2 °C 30.30in /  1026hPa Calm     44% 0.00in /  0mm 0.0 W/m2
01:16 50.7 °F /  10.4 °C 29.7 °F /  -1.3 °C 30.30in /  1026hPa Calm   1.0mph /  1.6km/h 44% 0.00in /  0mm 0.0 W/m2
01:22 51.3 °F /  10.7 °C 30.0 °F /  -1.1 °C 30.30in /  1026hPa Calm     44% 0.00in /  0mm 0.0 W/m2
01:28 51.6 °F /  10.9 °C 30.4 °F /  -0.9 °C 30.30in /  1026hPa Calm     44% 0.00in /  0mm 0.0 W/m2
01:34 52.0 °F /  11.1 °C 30.7 °F /  -0.7 °C 30.30in /  1026hPa Calm     44% 0.00in /  0mm 0.0 W/m2
01:40 52.2 °F /  11.2 °C 30.9 °F /  -0.6 °C 30.29in /  1025.6hPa Calm   1.0mph /  1.6km/h 44% 0.00in /  0mm 0.0 W/m2
01:46 52.3 °F /  11.3 °C 31.1 °F /  -0.5 °C 30.29in /  1025.6hPa Calm     44% 0.00in /  0mm 0.0 W/m2
01:53 52.3 °F /  11.3 °C 31.1 °F /  -0.5 °C 30.29in /  1025.6hPa Calm     44% 0.00in /  0mm 0.0 W/m2
01:59 52.3 °F /  11.3 °C 31.1 °F /  -0.5 °C 30.29in /  1025.6hPa Calm   1.0mph /  1.6km/h 44% 0.00in /  0mm 0.0 W/m2
02:05 52.3 °F /  11.3 °C 30.6 °F /  -0.8 °C 30.29in /  1025.6hPa Calm     43% 0.00in /  0mm 0.0 W/m2
02:11 52.3 °F /  11.3 °C 30.6 °F /  -0.8 °C 30.29in /  1025.6hPa Calm   2.0mph /  3.2km/h 43% 0.00in /  0mm 0.0 W/m2
02:17 52.2 °F /  11.2 °C 30.9 °F /  -0.6 °C 30.28in /  1025.3hPa Calm   1.0mph /  1.6km/h 44% 0.00in /  0mm 0.0 W/m2
02:23 52.0 °F /  11.1 °C 30.7 °F /  -0.7 °C 30.28in /  1025.3hPa Calm     44% 0.00in /  0mm 0.0 W/m2
02:29 51.6 °F /  10.9 °C 30.9 °F /  -0.6 °C 30.28in /  1025.3hPa Calm     45% 0.00in /  0mm 0.0 W/m2
02:36 51.4 °F /  10.8 °C 30.7 °F /  -0.7 °C 30.28in /  1025.3hPa Calm     45% 0.00in /  0mm 0.0 W/m2
02:42 51.1 °F /  10.6 °C 31.1 °F /  -0.5 °C 30.28in /  1025.3hPa Calm     46% 0.00in /  0mm 0.0 W/m2
02:48 50.7 °F /  10.4 °C 30.7 °F /  -0.7 °C 30.28in /  1025.3hPa Calm     46% 0.00in /  0mm 0.0 W/m2
02:54 50.5 °F /  10.3 °C 30.6 °F /  -0.8 °C 30.28in /  1025.3hPa Calm   1.0mph /  1.6km/h 46% 0.00in /  0mm 0.0 W/m2
03:00 50.4 °F /  10.2 °C 30.9 °F /  -0.6 °C 30.28in /  1025.3hPa Calm     47% 0.00in /  0mm 0.0 W/m2
03:06 50.0 °F /  10 °C 31.1 °F /  -0.5 °C 30.28in /  1025.3hPa Calm     48% 0.00in /  0mm 0.0 W/m2
03:13 49.6 °F /  9.8 °C 30.7 °F /  -0.7 °C 30.27in /  1024.9hPa Calm   1.0mph /  1.6km/h 48% 0.00in /  0mm 0.0 W/m2
03:19 49.5 °F /  9.7 °C 30.6 °F /  -0.8 °C 30.27in /  1024.9hPa Calm   1.0mph /  1.6km/h 48% 0.00in /  0mm 0.0 W/m2
03:25 49.5 °F /  9.7 °C 30.6 °F /  -0.8 °C 30.27in /  1024.9hPa Calm     48% 0.00in /  0mm 0.0 W/m2
03:31 49.3 °F /  9.6 °C 30.4 °F /  -0.9 °C 30.27in /  1024.9hPa Calm     48% 0.00in /  0mm 0.0 W/m2
03:37 48.9 °F /  9.4 °C 30.0 °F /  -1.1 °C 30.27in /  1024.9hPa Calm     48% 0.00in /  0mm 0.0 W/m2
03:43 48.7 °F /  9.3 °C 30.4 °F /  -0.9 °C 30.27in /  1024.9hPa Calm     49% 0.00in /  0mm 0.0 W/m2
03:49 48.6 °F /  9.2 °C 30.7 °F /  -0.7 °C 30.27in /  1024.9hPa Calm   1.0mph /  1.6km/h 50% 0.00in /  0mm 0.0 W/m2
03:56 48.4 °F /  9.1 °C 30.6 °F /  -0.8 °C 30.27in /  1024.9hPa Calm   1.0mph /  1.6km/h 50% 0.00in /  0mm 0.0 W/m2
04:02 48.0 °F /  8.9 °C 30.2 °F /  -1 °C 30.27in /  1024.9hPa Calm   1.0mph /  1.6km/h 50% 0.00in /  0mm 0.0 W/m2
04:08 48.0 °F /  8.9 °C 30.7 °F /  -0.7 °C 30.27in /  1024.9hPa Calm   2.0mph /  3.2km/h 51% 0.00in /  0mm 0.0 W/m2
04:18 48.2 °F /  9 °C 30.9 °F /  -0.6 °C 30.27in /  1024.9hPa Calm   3.0mph /  4.8km/h 51% 0.00in /  0mm 0.0 W/m2
04:24 48.4 °F /  9.1 °C 31.1 °F /  -0.5 °C 30.27in /  1024.9hPa Calm   4.0mph /  6.4km/h 51% 0.00in /  0mm 0.0 W/m2
04:28 48.6 °F /  9.2 °C 31.3 °F /  -0.4 °C 30.27in /  1024.9hPa Calm   1.0mph /  1.6km/h 51% 0.00in /  0mm 0.0 W/m2
04:30 48.6 °F /  9.2 °C 31.3 °F /  -0.4 °C 30.27in /  1024.9hPa Calm   1.0mph /  1.6km/h 51% 0.00in /  0mm 0.0 W/m2
04:36 48.6 °F /  9.2 °C 31.3 °F /  -0.4 °C 30.27in /  1024.9hPa East 2.9mph /  4.7km/h 3.0mph /  4.8km/h 51% 0.00in /  0mm 0.0 W/m2
04:43 48.6 °F /  9.2 °C 31.3 °F /  -0.4 °C 30.27in /  1024.9hPa Calm   1.0mph /  1.6km/h 51% 0.00in /  0mm 0.0 W/m2
04:49 48.6 °F /  9.2 °C 31.3 °F /  -0.4 °C 30.27in /  1024.9hPa Calm   3.0mph /  4.8km/h 51% 0.00in /  0mm 0.0 W/m2
04:51 48.6 °F /  9.2 °C 31.3 °F /  -0.4 °C 30.27in /  1024.9hPa Calm     51% 0.00in /  0mm 0.0 W/m2
04:57 48.6 °F /  9.2 °C 31.8 °F /  -0.1 °C 30.27in /  1024.9hPa Calm   3.0mph /  4.8km/h 52% 0.00in /  0mm 0.0 W/m2
05:03 48.6 °F /  9.2 °C 31.8 °F /  -0.1 °C 30.27in /  1024.9hPa Calm   1.0mph /  1.6km/h 52% 0.00in /  0mm 0.0 W/m2
05:09 48.6 °F /  9.2 °C 31.3 °F /  -0.4 °C 30.27in /  1024.9hPa Calm   1.0mph /  1.6km/h 51% 0.00in /  0mm 0.0 W/m2
05:15 48.7 °F /  9.3 °C 31.5 °F /  -0.3 °C 30.27in /  1024.9hPa Calm   1.0mph /  1.6km/h 51% 0.00in /  0mm 0.0 W/m2
05:21 48.9 °F /  9.4 °C 31.6 °F /  -0.2 °C 30.27in /  1024.9hPa Calm   3.0mph /  4.8km/h 51% 0.00in /  0mm 0.0 W/m2
05:28 49.3 °F /  9.6 °C 31.5 °F /  -0.3 °C 30.27in /  1024.9hPa Calm   3.0mph /  4.8km/h 50% 0.00in /  0mm 0.0 W/m2
05:34 49.3 °F /  9.6 °C 31.5 °F /  -0.3 °C 30.27in /  1024.9hPa Calm   1.0mph /  1.6km/h 50% 0.00in /  0mm 0.0 W/m2
05:40 49.3 °F /  9.6 °C 31.5 °F /  -0.3 °C 30.27in /  1024.9hPa Calm   3.0mph /  4.8km/h 50% 0.00in /  0mm 0.0 W/m2
05:46 49.3 °F /  9.6 °C 31.5 °F /  -0.3 °C 30.27in /  1024.9hPa ESE 0.9mph /  1.4km/h 4.0mph /  6.4km/h 50% 0.00in /  0mm 0.0 W/m2
05:53 48.9 °F /  9.4 °C 31.1 °F /  -0.5 °C 30.27in /  1024.9hPa Calm   1.0mph /  1.6km/h 50% 0.00in /  0mm 0.0 W/m2
05:58 48.7 °F /  9.3 °C 30.9 °F /  -0.6 °C 30.27in /  1024.9hPa Calm   3.0mph /  4.8km/h 50% 0.00in /  0mm 0.0 W/m2
06:04 48.6 °F /  9.2 °C 30.7 °F /  -0.7 °C 30.27in /  1024.9hPa SE 0.9mph /  1.4km/h 5.0mph /  8km/h 50% 0.00in /  0mm 0.0 W/m2
06:11 48.4 °F /  9.1 °C 31.1 °F /  -0.5 °C 30.27in /  1024.9hPa Calm   1.0mph /  1.6km/h 51% 0.00in /  0mm 0.0 W/m2
06:17 48.4 °F /  9.1 °C 31.6 °F /  -0.2 °C 30.27in /  1024.9hPa Calm     52% 0.00in /  0mm 0.0 W/m2
06:23 48.0 °F /  8.9 °C 31.3 °F /  -0.4 °C 30.27in /  1024.9hPa Calm     52% 0.00in /  0mm 0.0 W/m2
06:29 47.8 °F /  8.8 °C 31.1 °F /  -0.5 °C 30.27in /  1024.9hPa Calm     52% 0.00in /  0mm 0.0 W/m2
06:35 47.7 °F /  8.7 °C 31.3 °F /  -0.4 °C 30.27in /  1024.9hPa Calm   1.0mph /  1.6km/h 53% 0.00in /  0mm 5.0 W/m2
06:41 47.7 °F /  8.7 °C 31.3 °F /  -0.4 °C 30.27in /  1024.9hPa Calm     53% 0.00in /  0mm 7.0 W/m2
06:48 47.5 °F /  8.6 °C 31.3 °F /  -0.4 °C 30.28in /  1025.3hPa Calm   2.0mph /  3.2km/h 53% 0.00in /  0mm 12.0 W/m2
06:54 47.5 °F /  8.6 °C 31.3 °F /  -0.4 °C 30.28in /  1025.3hPa Calm   4.0mph /  6.4km/h 53% 0.00in /  0mm 14.0 W/m2
07:00 47.5 °F /  8.6 °C 31.3 °F /  -0.4 °C 30.28in /  1025.3hPa Calm   1.0mph /  1.6km/h 53% 0.00in /  0mm 18.0 W/m2
07:06 47.7 °F /  8.7 °C 31.3 °F /  -0.4 °C 30.29in /  1025.6hPa Calm     53% 0.00in /  0mm 30.0 W/m2
07:12 47.8 °F /  8.8 °C 31.5 °F /  -0.3 °C 30.28in /  1025.3hPa Calm   1.0mph /  1.6km/h 53% 0.00in /  0mm 39.0 W/m2
07:18 48.0 °F /  8.9 °C 31.6 °F /  -0.2 °C 30.29in /  1025.6hPa ESE 0.9mph /  1.4km/h 2.0mph /  3.2km/h 53% 0.00in /  0mm 47.0 W/m2
07:24 48.6 °F /  9.2 °C 31.8 °F /  -0.1 °C 30.29in /  1025.6hPa Calm     52% 0.00in /  0mm 51.0 W/m2
07:31 48.9 °F /  9.4 °C 32.0 °F /  0 °C 30.29in /  1025.6hPa Calm     52% 0.00in /  0mm 69.0 W/m2
07:37 49.3 °F /  9.6 °C 32.4 °F /  0.2 °C 30.29in /  1025.6hPa Calm   1.0mph /  1.6km/h 52% 0.00in /  0mm 79.0 W/m2
07:43 49.6 °F /  9.8 °C 32.2 °F /  0.1 °C 30.29in /  1025.6hPa Calm     51% 0.00in /  0mm 79.0 W/m2
07:49 50.0 °F /  10 °C 33.1 °F /  0.6 °C 30.30in /  1026hPa Calm     52% 0.00in /  0mm 81.0 W/m2
07:55 50.4 °F /  10.2 °C 33.4 °F /  0.8 °C 30.30in /  1026hPa Calm     52% 0.00in /  0mm 84.0 W/m2
08:01 50.7 °F /  10.4 °C 33.8 °F /  1 °C 30.30in /  1026hPa Calm     52% 0.00in /  0mm 83.0 W/m2
08:07 51.1 °F /  10.6 °C 33.1 °F /  0.6 °C 30.30in /  1026hPa Calm     50% 0.00in /  0mm 100.0 W/m2
08:14 51.4 °F /  10.8 °C 32.9 °F /  0.5 °C 30.31in /  1026.3hPa Calm     49% 0.00in /  0mm 123.0 W/m2
08:20 52.0 °F /  11.1 °C 34.3 °F /  1.3 °C 30.31in /  1026.3hPa Calm     51% 0.00in /  0mm 155.0 W/m2
08:26 52.5 °F /  11.4 °C 34.0 °F /  1.1 °C 30.30in /  1026hPa Calm   1.0mph /  1.6km/h 49% 0.00in /  0mm 188.0 W/m2
08:32 53.8 °F /  12.1 °C 34.0 °F /  1.1 °C 30.30in /  1026hPa Calm   1.0mph /  1.6km/h 47% 0.00in /  0mm 139.0 W/m2
08:38 54.9 °F /  12.7 °C 36.1 °F /  2.3 °C 30.30in /  1026hPa Calm     49% 0.00in /  0mm 192.0 W/m2
08:44 55.6 °F /  13.1 °C 34.5 °F /  1.4 °C 30.30in /  1026hPa Calm   1.0mph /  1.6km/h 45% 0.00in /  0mm 327.0 W/m2
08:50 56.7 °F /  13.7 °C 34.3 °F /  1.3 °C 30.30in /  1026hPa Calm   1.0mph /  1.6km/h 43% 0.00in /  0mm 330.0 W/m2
08:56 57.9 °F /  14.4 °C 34.9 °F /  1.6 °C 30.30in /  1026hPa Calm   1.0mph /  1.6km/h 42% 0.00in /  0mm 538.0 W/m2
09:02 59.2 °F /  15.1 °C 34.2 °F /  1.2 °C 30.30in /  1026hPa Calm     39% 0.00in /  0mm 179.0 W/m2
09:08 60.3 °F /  15.7 °C 33.8 °F /  1 °C 30.30in /  1026hPa NNE 4.0mph /  6.4km/h 4.0mph /  6.4km/h 37% 0.00in /  0mm 584.0 W/m2
09:14 61.2 °F /  16.2 °C 33.3 °F /  0.7 °C 30.30in /  1026hPa Calm   4.0mph /  6.4km/h 35% 0.00in /  0mm 225.0 W/m2
09:21 62.2 °F /  16.8 °C 34.2 °F /  1.2 °C 30.29in /  1025.6hPa Calm   1.0mph /  1.6km/h 35% 0.00in /  0mm 522.0 W/m2
09:27 63.0 °F /  17.2 °C 33.4 °F /  0.8 °C 30.29in /  1025.6hPa NNW 0.9mph /  1.4km/h 3.0mph /  4.8km/h 33% 0.00in /  0mm 487.0 W/m2
09:33 63.3 °F /  17.4 °C 33.8 °F /  1 °C 30.29in /  1025.6hPa Calm   2.0mph /  3.2km/h 33% 0.00in /  0mm 294.0 W/m2
09:39 63.5 °F /  17.5 °C 33.8 °F /  1 °C 30.29in /  1025.6hPa Calm   3.0mph /  4.8km/h 33% 0.00in /  0mm 336.0 W/m2
09:45 63.7 °F /  17.6 °C 34.0 °F /  1.1 °C 30.30in /  1026hPa NNW 0.9mph /  1.4km/h 3.0mph /  4.8km/h 33% 0.00in /  0mm 436.0 W/m2
09:51 64.0 °F /  17.8 °C 34.3 °F /  1.3 °C 30.29in /  1025.6hPa Calm   6.0mph /  9.7km/h 33% 0.00in /  0mm 424.0 W/m2
09:57 64.2 °F /  17.9 °C 33.8 °F /  1 °C 30.29in /  1025.6hPa Calm   4.0mph /  6.4km/h 32% 0.00in /  0mm 237.0 W/m2
10:03 64.8 °F /  18.2 °C 35.1 °F /  1.7 °C 30.29in /  1025.6hPa Calm   5.0mph /  8km/h 33% 0.00in /  0mm 357.0 W/m2
10:09 64.9 °F /  18.3 °C 35.1 °F /  1.7 °C 30.29in /  1025.6hPa Calm   1.0mph /  1.6km/h 33% 0.00in /  0mm 323.0 W/m2
10:15 64.9 °F /  18.3 °C 34.3 °F /  1.3 °C 30.29in /  1025.6hPa NNW 4.0mph /  6.4km/h 7.0mph /  11.3km/h 32% 0.00in /  0mm 327.0 W/m2
10:21 64.8 °F /  18.2 °C 34.2 °F /  1.2 °C 30.29in /  1025.6hPa North 2.0mph /  3.2km/h 5.0mph /  8km/h 32% 0.00in /  0mm 304.0 W/m2
10:27 64.8 °F /  18.2 °C 34.2 °F /  1.2 °C 30.29in /  1025.6hPa NW 2.0mph /  3.2km/h 5.0mph /  8km/h 32% 0.00in /  0mm 274.0 W/m2
10:33 64.8 °F /  18.2 °C 34.2 °F /  1.2 °C 30.29in /  1025.6hPa Calm   3.0mph /  4.8km/h 32% 0.00in /  0mm 250.0 W/m2
10:39 64.8 °F /  18.2 °C 34.2 °F /  1.2 °C 30.29in /  1025.6hPa North 0.9mph /  1.4km/h 2.0mph /  3.2km/h 32% 0.00in /  0mm 297.0 W/m2
10:45 64.8 °F /  18.2 °C 35.1 °F /  1.7 °C 30.28in /  1025.3hPa Calm   5.0mph /  8km/h 33% 0.00in /  0mm 304.0 W/m2
10:51 65.1 °F /  18.4 °C 35.2 °F /  1.8 °C 30.28in /  1025.3hPa Calm   4.0mph /  6.4km/h 33% 0.00in /  0mm 262.0 W/m2
10:57 65.3 °F /  18.5 °C 34.7 °F /  1.5 °C 30.28in /  1025.3hPa Calm   3.0mph /  4.8km/h 32% 0.00in /  0mm 346.0 W/m2
11:03 65.8 °F /  18.8 °C 35.2 °F /  1.8 °C 30.28in /  1025.3hPa North 0.9mph /  1.4km/h 7.0mph /  11.3km/h 32% 0.00in /  0mm 367.0 W/m2
11:09 66.4 °F /  19.1 °C 35.6 °F /  2 °C 30.28in /  1025.3hPa NNW 4.0mph /  6.4km/h 8.0mph /  12.9km/h 32% 0.00in /  0mm 271.0 W/m2
11:15 66.6 °F /  19.2 °C 35.8 °F /  2.1 °C 30.28in /  1025.3hPa Calm   10.0mph /  16.1km/h 32% 0.00in /  0mm 835.0 W/m2
11:21 66.7 °F /  19.3 °C 36.0 °F /  2.2 °C 30.27in /  1024.9hPa North 2.0mph /  3.2km/h 7.0mph /  11.3km/h 32% 0.00in /  0mm 492.0 W/m2
11:27 67.1 °F /  19.5 °C 35.4 °F /  1.9 °C 30.27in /  1024.9hPa Calm   1.0mph /  1.6km/h 31% 0.00in /  0mm 520.0 W/m2
11:33 67.6 °F /  19.8 °C 36.0 °F /  2.2 °C 30.27in /  1024.9hPa WNW 0.9mph /  1.4km/h 4.0mph /  6.4km/h 31% 0.00in /  0mm 381.0 W/m2
11:39 67.8 °F /  19.9 °C 36.1 °F /  2.3 °C 30.27in /  1024.9hPa NE 2.0mph /  3.2km/h 6.0mph /  9.7km/h 31% 0.00in /  0mm 497.0 W/m2
11:45 68.4 °F /  20.2 °C 35.8 °F /  2.1 °C 30.27in /  1024.9hPa NW 6.9mph /  11.1km/h 7.0mph /  11.3km/h 30% 0.00in /  0mm 605.0 W/m2
11:51 68.5 °F /  20.3 °C 36.0 °F /  2.2 °C 30.26in /  1024.6hPa NW 4.0mph /  6.4km/h 8.0mph /  12.9km/h 30% 0.00in /  0mm 330.0 W/m2
11:57 68.4 °F /  20.2 °C 36.5 °F /  2.5 °C 30.26in /  1024.6hPa North 0.9mph /  1.4km/h 3.0mph /  4.8km/h 31% 0.00in /  0mm 343.0 W/m2
12:03 68.4 °F /  20.2 °C 35.8 °F /  2.1 °C 30.26in /  1024.6hPa Calm   4.0mph /  6.4km/h 30% 0.00in /  0mm 793.0 W/m2
12:09 68.7 °F /  20.4 °C 36.9 °F /  2.7 °C 30.26in /  1024.6hPa WNW 2.9mph /  4.7km/h 4.0mph /  6.4km/h 31% 0.00in /  0mm 403.0 W/m2
12:15 69.3 °F /  20.7 °C 35.6 °F /  2 °C 30.25in /  1024.3hPa NNW 2.0mph /  3.2km/h 6.0mph /  9.7km/h 29% 0.00in /  0mm 434.0 W/m2
12:21 69.3 °F /  20.7 °C 35.6 °F /  2 °C 30.25in /  1024.3hPa NNW 2.9mph /  4.7km/h 6.0mph /  9.7km/h 29% 0.00in /  0mm 714.0 W/m2
12:27 69.4 °F /  20.8 °C 35.8 °F /  2.1 °C 30.25in /  1024.3hPa Calm   6.0mph /  9.7km/h 29% 0.00in /  0mm 670.0 W/m2
12:33 69.6 °F /  20.9 °C 35.1 °F /  1.7 °C 30.25in /  1024.3hPa Calm   2.0mph /  3.2km/h 28% 0.00in /  0mm 452.0 W/m2
12:39 69.4 °F /  20.8 °C 34.9 °F /  1.6 °C 30.25in /  1024.3hPa NNW 0.9mph /  1.4km/h 4.0mph /  6.4km/h 28% 0.00in /  0mm 288.0 W/m2
12:45 69.3 °F /  20.7 °C 35.6 °F /  2 °C 30.24in /  1023.9hPa NE 2.0mph /  3.2km/h 6.0mph /  9.7km/h 29% 0.00in /  0mm 527.0 W/m2
12:51 69.3 °F /  20.7 °C 34.7 °F /  1.5 °C 30.24in /  1023.9hPa Calm   4.0mph /  6.4km/h 28% 0.00in /  0mm 701.0 W/m2
12:57 69.4 °F /  20.8 °C 34.9 °F /  1.6 °C 30.23in /  1023.6hPa WNW 0.9mph /  1.4km/h 2.0mph /  3.2km/h 28% 0.00in /  0mm 749.0 W/m2
13:03 69.4 °F /  20.8 °C 35.8 °F /  2.1 °C 30.23in /  1023.6hPa West 0.9mph /  1.4km/h 4.0mph /  6.4km/h 29% 0.00in /  0mm 696.0 W/m2
13:09 70.2 °F /  21.2 °C 35.6 °F /  2 °C 30.23in /  1023.6hPa Calm     28% 0.00in /  0mm 666.0 W/m2
13:15 70.5 °F /  21.4 °C 35.8 °F /  2.1 °C 30.22in /  1023.2hPa Calm   2.0mph /  3.2km/h 28% 0.00in /  0mm 703.0 W/m2
13:21 71.1 °F /  21.7 °C 35.4 °F /  1.9 °C 30.22in /  1023.2hPa Calm   2.0mph /  3.2km/h 27% 0.00in /  0mm 684.0 W/m2
13:27 71.2 °F /  21.8 °C 35.6 °F /  2 °C 30.22in /  1023.2hPa WSW 0.9mph /  1.4km/h 5.0mph /  8km/h 27% 0.00in /  0mm 684.0 W/m2
13:33 71.8 °F /  22.1 °C 35.1 °F /  1.7 °C 30.21in /  1022.9hPa WNW 0.9mph /  1.4km/h 4.0mph /  6.4km/h 26% 0.00in /  0mm 680.0 W/m2
13:39 72.0 °F /  22.2 °C 35.2 °F /  1.8 °C 30.21in /  1022.9hPa Calm   3.0mph /  4.8km/h 26% 0.00in /  0mm 687.0 W/m2
13:45 72.0 °F /  22.2 °C 34.2 °F /  1.2 °C 30.20in /  1022.6hPa Calm   3.0mph /  4.8km/h 25% 0.00in /  0mm 179.0 W/m2
13:51 72.1 °F /  22.3 °C 34.3 °F /  1.3 °C 30.20in /  1022.6hPa NNW 2.9mph /  4.7km/h 6.0mph /  9.7km/h 25% 0.00in /  0mm 765.0 W/m2
13:57 72.9 °F /  22.7 °C 34.0 °F /  1.1 °C 30.20in /  1022.6hPa Calm   1.0mph /  1.6km/h 24% 0.00in /  0mm 754.0 W/m2
14:03 72.7 °F /  22.6 °C 32.7 °F /  0.4 °C 30.20in /  1022.6hPa North 0.9mph /  1.4km/h 4.0mph /  6.4km/h 23% 0.00in /  0mm 192.0 W/m2
14:09 71.8 °F /  22.1 °C 33.1 °F /  0.6 °C 30.20in /  1022.6hPa Calm   3.0mph /  4.8km/h 24% 0.00in /  0mm 169.0 W/m2
14:15 71.2 °F /  21.8 °C 32.5 °F /  0.3 °C 30.20in /  1022.6hPa Calm     24% 0.00in /  0mm 258.0 W/m2
14:21 71.2 °F /  21.8 °C 32.5 °F /  0.3 °C 30.20in /  1022.6hPa Calm   9.0mph /  14.5km/h 24% 0.00in /  0mm 698.0 W/m2
14:27 71.8 °F /  22.1 °C 34.0 °F /  1.1 °C 30.19in /  1022.2hPa West 0.9mph /  1.4km/h 3.0mph /  4.8km/h 25% 0.00in /  0mm 675.0 W/m2
14:33 72.1 °F /  22.3 °C 33.4 °F /  0.8 °C 30.19in /  1022.2hPa NW 0.9mph /  1.4km/h 5.0mph /  8km/h 24% 0.00in /  0mm 671.0 W/m2
14:39 72.5 °F /  22.5 °C 33.6 °F /  0.9 °C 30.19in /  1022.2hPa Calm   4.0mph /  6.4km/h 24% 0.00in /  0mm 649.0 W/m2
14:45 73.0 °F /  22.8 °C 33.1 °F /  0.6 °C 30.18in /  1021.9hPa Calm   4.0mph /  6.4km/h 23% 0.00in /  0mm 619.0 W/m2
14:51 73.6 °F /  23.1 °C 32.4 °F /  0.2 °C 30.18in /  1021.9hPa WNW 0.9mph /  1.4km/h 5.0mph /  8km/h 22% 0.00in /  0mm 216.0 W/m2
14:57 73.4 °F /  23 °C 32.2 °F /  0.1 °C 30.19in /  1022.2hPa WNW 0.9mph /  1.4km/h 7.0mph /  11.3km/h 22% 0.00in /  0mm 165.0 W/m2
15:03 72.9 °F /  22.7 °C 32.9 °F /  0.5 °C 30.19in /  1022.2hPa WNW 0.9mph /  1.4km/h 2.0mph /  3.2km/h 23% 0.00in /  0mm 151.0 W/m2
15:09 72.0 °F /  22.2 °C 32.2 °F /  0.1 °C 30.19in /  1022.2hPa West 2.0mph /  3.2km/h 6.0mph /  9.7km/h 23% 0.00in /  0mm 137.0 W/m2
15:15 71.1 °F /  21.7 °C 31.5 °F /  -0.3 °C 30.19in /  1022.2hPa Calm   4.0mph /  6.4km/h 23% 0.00in /  0mm 118.0 W/m2
15:21 70.3 °F /  21.3 °C 30.7 °F /  -0.7 °C 30.19in /  1022.2hPa WSW 0.9mph /  1.4km/h 6.0mph /  9.7km/h 23% 0.00in /  0mm 88.0 W/m2
15:27 69.6 °F /  20.9 °C 30.2 °F /  -1 °C 30.19in /  1022.2hPa WSW 2.0mph /  3.2km/h 8.0mph /  12.9km/h 23% 0.00in /  0mm 72.0 W/m2
15:33 69.3 °F /  20.7 °C 30.9 °F /  -0.6 °C 30.19in /  1022.2hPa SW 2.0mph /  3.2km/h 5.0mph /  8km/h 24% 0.00in /  0mm 74.0 W/m2
15:40 69.1 °F /  20.6 °C 31.8 °F /  -0.1 °C 30.19in /  1022.2hPa Calm   5.0mph /  8km/h 25% 0.00in /  0mm 76.0 W/m2
15:46 68.7 °F /  20.4 °C 30.4 °F /  -0.9 °C 30.19in /  1022.2hPa WSW 2.9mph /  4.7km/h 4.0mph /  6.4km/h 24% 0.00in /  0mm 65.0 W/m2
15:52 68.5 °F /  20.3 °C 31.3 °F /  -0.4 °C 30.19in /  1022.2hPa WSW 0.9mph /  1.4km/h 5.0mph /  8km/h 25% 0.00in /  0mm 58.0 W/m2
15:58 68.4 °F /  20.2 °C 31.1 °F /  -0.5 °C 30.19in /  1022.2hPa Calm     25% 0.00in /  0mm 63.0 W/m2
16:04 68.4 °F /  20.2 °C 31.1 °F /  -0.5 °C 30.19in /  1022.2hPa SW 0.9mph /  1.4km/h 1.0mph /  1.6km/h 25% 0.00in /  0mm 47.0 W/m2
16:10 68.4 °F /  20.2 °C 31.1 °F /  -0.5 °C 30.20in /  1022.6hPa WSW 0.9mph /  1.4km/h 3.0mph /  4.8km/h 25% 0.00in /  0mm 49.0 W/m2
16:16 68.2 °F /  20.1 °C 31.1 °F /  -0.5 °C 30.19in /  1022.2hPa Calm   2.0mph /  3.2km/h 25% 0.00in /  0mm 51.0 W/m2
16:22 68.0 °F /  20 °C 31.8 °F /  -0.1 °C 30.20in /  1022.6hPa Calm   1.0mph /  1.6km/h 26% 0.00in /  0mm 47.0 W/m2
16:28 67.8 °F /  19.9 °C 31.6 °F /  -0.2 °C 30.20in /  1022.6hPa Calm   2.0mph /  3.2km/h 26% 0.00in /  0mm 60.0 W/m2
16:34 67.8 °F /  19.9 °C 30.7 °F /  -0.7 °C 30.20in /  1022.6hPa SSW 0.9mph /  1.4km/h 2.0mph /  3.2km/h 25% 0.00in /  0mm 46.0 W/m2
16:40 67.8 °F /  19.9 °C 30.7 °F /  -0.7 °C 30.20in /  1022.6hPa Calm   1.0mph /  1.6km/h 25% 0.00in /  0mm 30.0 W/m2
16:46 67.8 °F /  19.9 °C 30.7 °F /  -0.7 °C 30.20in /  1022.6hPa SSW 0.9mph /  1.4km/h 2.0mph /  3.2km/h 25% 0.00in /  0mm 32.0 W/m2
16:52 67.6 °F /  19.8 °C 29.5 °F /  -1.4 °C 30.20in /  1022.6hPa Calm   4.0mph /  6.4km/h 24% 0.00in /  0mm 39.0 W/m2
16:59 67.6 °F /  19.8 °C 29.5 °F /  -1.4 °C 30.20in /  1022.6hPa Calm   1.0mph /  1.6km/h 24% 0.00in /  0mm 37.0 W/m2
17:05 67.6 °F /  19.8 °C 29.5 °F /  -1.4 °C 30.20in /  1022.6hPa Calm   1.0mph /  1.6km/h 24% 0.00in /  0mm 23.0 W/m2
17:07 67.6 °F /  19.8 °C 30.6 °F /  -0.8 °C 30.20in /  1022.6hPa Calm     25% 0.00in /  0mm 19.0 W/m2
17:13 67.5 °F /  19.7 °C 30.4 °F /  -0.9 °C 30.20in /  1022.6hPa Calm     25% 0.00in /  0mm 16.0 W/m2
17:19 66.9 °F /  19.4 °C 30.9 °F /  -0.6 °C 30.20in /  1022.6hPa Calm     26% 0.00in /  0mm 11.0 W/m2
17:25 66.6 °F /  19.2 °C 30.6 °F /  -0.8 °C 30.21in /  1022.9hPa Calm     26% 0.00in /  0mm 5.0 W/m2
17:31 65.8 °F /  18.8 °C 30.0 °F /  -1.1 °C 30.21in /  1022.9hPa Calm     26% 0.00in /  0mm 0.0 W/m2
17:38 65.5 °F /  18.6 °C 29.7 °F /  -1.3 °C 30.21in /  1022.9hPa Calm     26% 0.00in /  0mm 0.0 W/m2
17:44 64.9 °F /  18.3 °C 29.3 °F /  -1.5 °C 30.21in /  1022.9hPa Calm     26% 0.00in /  0mm 0.0 W/m2
17:50 64.2 °F /  17.9 °C 28.6 °F /  -1.9 °C 30.22in /  1023.2hPa Calm     26% 0.00in /  0mm 0.0 W/m2
17:56 63.9 °F /  17.7 °C 29.3 °F /  -1.5 °C 30.22in /  1023.2hPa Calm     27% 0.00in /  0mm 0.0 W/m2
18:02 63.3 °F /  17.4 °C 29.7 °F /  -1.3 °C 30.22in /  1023.2hPa Calm     28% 0.00in /  0mm 0.0 W/m2
18:08 62.8 °F /  17.1 °C 29.1 °F /  -1.6 °C 30.22in /  1023.2hPa Calm     28% 0.00in /  0mm 0.0 W/m2
18:14 62.2 °F /  16.8 °C 28.8 °F /  -1.8 °C 30.22in /  1023.2hPa Calm     28% 0.00in /  0mm 0.0 W/m2
18:21 61.5 °F /  16.4 °C 28.9 °F /  -1.7 °C 30.23in /  1023.6hPa Calm     29% 0.00in /  0mm 0.0 W/m2
18:27 61.2 °F /  16.2 °C 28.6 °F /  -1.9 °C 30.23in /  1023.6hPa Calm     29% 0.00in /  0mm 0.0 W/m2
18:33 60.6 °F /  15.9 °C 28.9 °F /  -1.7 °C 30.23in /  1023.6hPa Calm     30% 0.00in /  0mm 0.0 W/m2
18:39 60.3 °F /  15.7 °C 28.8 °F /  -1.8 °C 30.23in /  1023.6hPa Calm     30% 0.00in /  0mm 0.0 W/m2
18:45 59.7 °F /  15.4 °C 28.9 °F /  -1.7 °C 30.23in /  1023.6hPa Calm     31% 0.00in /  0mm 0.0 W/m2
18:51 59.5 °F /  15.3 °C 28.9 °F /  -1.7 °C 30.24in /  1023.9hPa Calm     31% 0.00in /  0mm 0.0 W/m2
18:57 59.2 °F /  15.1 °C 28.6 °F /  -1.9 °C 30.24in /  1023.9hPa Calm     31% 0.00in /  0mm 0.0 W/m2
19:03 58.8 °F /  14.9 °C 28.9 °F /  -1.7 °C 30.24in /  1023.9hPa Calm     32% 0.00in /  0mm 0.0 W/m2
19:09 58.6 °F /  14.8 °C 28.9 °F /  -1.7 °C 30.24in /  1023.9hPa Calm     32% 0.00in /  0mm 0.0 W/m2
19:15 58.5 °F /  14.7 °C 28.8 °F /  -1.8 °C 30.25in /  1024.3hPa Calm     32% 0.00in /  0mm 0.0 W/m2
19:21 58.1 °F /  14.5 °C 28.4 °F /  -2 °C 30.25in /  1024.3hPa Calm     32% 0.00in /  0mm 0.0 W/m2
19:27 57.9 °F /  14.4 °C 28.9 °F /  -1.7 °C 30.25in /  1024.3hPa Calm     33% 0.00in /  0mm 0.0 W/m2
19:33 57.6 °F /  14.2 °C 29.5 °F /  -1.4 °C 30.26in /  1024.6hPa Calm     34% 0.00in /  0mm 0.0 W/m2
19:40 57.4 °F /  14.1 °C 28.6 °F /  -1.9 °C 30.26in /  1024.6hPa Calm     33% 0.00in /  0mm 0.0 W/m2
19:46 57.2 °F /  14 °C 28.4 °F /  -2 °C 30.26in /  1024.6hPa Calm     33% 0.00in /  0mm 0.0 W/m2
19:52 57.0 °F /  13.9 °C 28.9 °F /  -1.7 °C 30.26in /  1024.6hPa Calm     34% 0.00in /  0mm 0.0 W/m2
19:58 56.8 °F /  13.8 °C 28.8 °F /  -1.8 °C 30.27in /  1024.9hPa Calm     34% 0.00in /  0mm 0.0 W/m2
20:04 56.7 °F /  13.7 °C 28.6 °F /  -1.9 °C 30.27in /  1024.9hPa Calm     34% 0.00in /  0mm 0.0 W/m2
20:10 56.5 °F /  13.6 °C 27.7 °F /  -2.4 °C 30.27in /  1024.9hPa Calm     33% 0.00in /  0mm 0.0 W/m2
20:17 56.3 °F /  13.5 °C 27.5 °F /  -2.5 °C 30.27in /  1024.9hPa Calm   1.0mph /  1.6km/h 33% 0.00in /  0mm 0.0 W/m2
20:23 56.3 °F /  13.5 °C 27.5 °F /  -2.5 °C 30.28in /  1025.3hPa Calm     33% 0.00in /  0mm 0.0 W/m2
20:29 56.1 °F /  13.4 °C 27.3 °F /  -2.6 °C 30.28in /  1025.3hPa Calm     33% 0.00in /  0mm 0.0 W/m2
20:35 56.1 °F /  13.4 °C 27.3 °F /  -2.6 °C 30.28in /  1025.3hPa Calm     33% 0.00in /  0mm 0.0 W/m2
20:41 55.9 °F /  13.3 °C 28.0 °F /  -2.2 °C 30.28in /  1025.3hPa Calm     34% 0.00in /  0mm 0.0 W/m2
20:47 55.8 °F /  13.2 °C 27.9 °F /  -2.3 °C 30.28in /  1025.3hPa Calm     34% 0.00in /  0mm 0.0 W/m2
20:53 55.6 °F /  13.1 °C 27.7 °F /  -2.4 °C 30.28in /  1025.3hPa Calm     34% 0.00in /  0mm 0.0 W/m2
21:00 55.4 °F /  13 °C 28.2 °F /  -2.1 °C 30.28in /  1025.3hPa Calm     35% 0.00in /  0mm 0.0 W/m2
21:06 55.2 °F /  12.9 °C 28.8 °F /  -1.8 °C 30.28in /  1025.3hPa Calm     36% 0.00in /  0mm 0.0 W/m2
21:12 54.9 °F /  12.7 °C 27.7 °F /  -2.4 °C 30.28in /  1025.3hPa Calm     35% 0.00in /  0mm 0.0 W/m2
21:18 54.9 °F /  12.7 °C 27.7 °F /  -2.4 °C 30.28in /  1025.3hPa Calm     35% 0.00in /  0mm 0.0 W/m2
21:24 54.7 °F /  12.6 °C 28.2 °F /  -2.1 °C 30.28in /  1025.3hPa Calm     36% 0.00in /  0mm 0.0 W/m2
21:30 54.5 °F /  12.5 °C 27.3 °F /  -2.6 °C 30.29in /  1025.6hPa Calm     35% 0.00in /  0mm 0.0 W/m2
21:36 54.3 °F /  12.4 °C 27.3 °F /  -2.6 °C 30.29in /  1025.6hPa Calm     35% 0.00in /  0mm 0.0 W/m2
21:42 54.3 °F /  12.4 °C 27.9 °F /  -2.3 °C 30.29in /  1025.6hPa Calm     36% 0.00in /  0mm 0.0 W/m2
21:50 54.1 °F /  12.3 °C 27.7 °F /  -2.4 °C 30.29in /  1025.6hPa Calm     36% 0.00in /  0mm 0.0 W/m2
21:57 54.0 °F /  12.2 °C 28.2 °F /  -2.1 °C 30.29in /  1025.6hPa Calm     37% 0.00in /  0mm 0.0 W/m2
22:03 53.8 °F /  12.1 °C 28.0 °F /  -2.2 °C 30.30in /  1026hPa Calm     37% 0.00in /  0mm 0.0 W/m2
22:09 53.4 °F /  11.9 °C 27.9 °F /  -2.3 °C 30.30in /  1026hPa Calm     37% 0.00in /  0mm 0.0 W/m2
22:15 53.2 °F /  11.8 °C 28.2 °F /  -2.1 °C 30.30in /  1026hPa Calm     38% 0.00in /  0mm 0.0 W/m2
22:21 53.1 °F /  11.7 °C 27.5 °F /  -2.5 °C 30.30in /  1026hPa Calm     37% 0.00in /  0mm 0.0 W/m2
22:27 52.9 °F /  11.6 °C 27.3 °F /  -2.6 °C 30.31in /  1026.3hPa Calm     37% 0.00in /  0mm 0.0 W/m2
22:34 52.5 °F /  11.4 °C 27.7 °F /  -2.4 °C 30.31in /  1026.3hPa Calm     38% 0.00in /  0mm 0.0 W/m2
22:40 52.3 °F /  11.3 °C 27.5 °F /  -2.5 °C 30.30in /  1026hPa Calm     38% 0.00in /  0mm 0.0 W/m2
22:46 52.2 °F /  11.2 °C 27.3 °F /  -2.6 °C 30.30in /  1026hPa Calm     38% 0.00in /  0mm 0.0 W/m2
22:52 51.8 °F /  11 °C 27.0 °F /  -2.8 °C 30.30in /  1026hPa Calm     38% 0.00in /  0mm 0.0 W/m2
22:58 51.4 °F /  10.8 °C 27.3 °F /  -2.6 °C 30.30in /  1026hPa Calm     39% 0.00in /  0mm 0.0 W/m2
23:04 51.3 °F /  10.7 °C 27.1 °F /  -2.7 °C 30.30in /  1026hPa Calm     39% 0.00in /  0mm 0.0 W/m2
23:10 51.1 °F /  10.6 °C 27.0 °F /  -2.8 °C 30.30in /  1026hPa Calm     39% 0.00in /  0mm 0.0 W/m2
23:16 50.7 °F /  10.4 °C 27.3 °F /  -2.6 °C 30.31in /  1026.3hPa Calm     40% 0.00in /  0mm 0.0 W/m2
23:22 50.5 °F /  10.3 °C 27.1 °F /  -2.7 °C 30.30in /  1026hPa Calm     40% 0.00in /  0mm 0.0 W/m2
23:28 50.5 °F /  10.3 °C 27.1 °F /  -2.7 °C 30.30in /  1026hPa Calm   1.0mph /  1.6km/h 40% 0.00in /  0mm 0.0 W/m2
23:35 50.4 °F /  10.2 °C 27.0 °F /  -2.8 °C 30.31in /  1026.3hPa Calm     40% 0.00in /  0mm 0.0 W/m2
23:41 50.2 °F /  10.1 °C 26.8 °F /  -2.9 °C 30.31in /  1026.3hPa Calm     40% 0.00in /  0mm 0.0 W/m2
23:47 50.0 °F /  10 °C 26.6 °F /  -3 °C 30.31in /  1026.3hPa Calm     40% 0.00in /  0mm 0.0 W/m2
23:53 49.8 °F /  9.9 °C 26.4 °F /  -3.1 °C 30.31in /  1026.3hPa Calm     40% 0.00in /  0mm 0.0 W/m2
23:59 49.6 °F /  9.8 °C 26.2 °F /  -3.2 °C 30.31in /  1026.3hPa Calm     40% 0.00in /  0mm 0.0 W/m2
Olympia, Windhoek, Namibia
Compliments of Weather Underground - 3 mb